createdAt,value
2018-09-23T00:01:55.983Z,3.37
2018-09-23T00:04:23.174Z,2.58
2018-09-23T00:06:50.377Z,2.12
2018-09-23T00:09:17.701Z,2.20
2018-09-23T00:11:44.956Z,3.00
2018-09-23T00:14:12.189Z,2.98
2018-09-23T00:16:39.383Z,1.77
2018-09-23T00:19:06.668Z,2.40
2018-09-23T00:21:33.870Z,2.58
2018-09-23T00:24:01.049Z,2.33
2018-09-23T00:26:28.265Z,2.50
2018-09-23T00:28:55.493Z,2.10
2018-09-23T00:31:22.687Z,2.10
2018-09-23T00:33:49.914Z,1.85
2018-09-23T00:36:17.111Z,2.55
2018-09-23T00:38:44.324Z,2.87
2018-09-23T00:41:11.514Z,2.50
2018-09-23T00:43:38.720Z,2.35
2018-09-23T00:46:05.886Z,1.98
2018-09-23T00:48:33.238Z,2.40
2018-09-23T00:51:00.435Z,2.92
2018-09-23T00:53:27.615Z,1.90
2018-09-23T00:55:54.813Z,1.95
2018-09-23T00:58:22.002Z,2.20
2018-09-23T01:00:49.235Z,1.87
2018-09-23T01:03:16.454Z,2.00
2018-09-23T01:05:43.632Z,2.10
2018-09-23T01:08:10.935Z,2.65
2018-09-23T01:10:38.163Z,2.90
2018-09-23T01:13:05.396Z,2.00
2018-09-23T01:15:32.620Z,2.30
2018-09-23T01:17:59.831Z,2.30
2018-09-23T01:20:27.022Z,2.37
2018-09-23T01:22:54.203Z,2.87
2018-09-23T01:25:21.386Z,2.25
2018-09-23T01:27:48.619Z,2.77
2018-09-23T01:30:15.831Z,3.25
2018-09-23T01:32:43.048Z,2.47
2018-09-23T01:35:10.234Z,2.52
2018-09-23T01:37:37.426Z,2.95
2018-09-23T01:40:04.611Z,2.20
2018-09-23T01:42:31.805Z,2.92
2018-09-23T01:44:59.017Z,2.70
2018-09-23T01:47:26.210Z,3.15
2018-09-23T01:49:53.439Z,2.77
2018-09-23T01:52:20.627Z,2.33
2018-09-23T01:54:47.814Z,2.40
2018-09-23T01:57:15.024Z,2.40
2018-09-23T01:59:42.324Z,2.02
2018-09-23T02:02:09.617Z,2.35
2018-09-23T02:04:36.823Z,2.15
2018-09-23T02:07:04.018Z,1.90
2018-09-23T02:09:31.216Z,2.70
2018-09-23T02:11:58.431Z,2.58
2018-09-23T02:14:25.670Z,3.10
2018-09-23T02:16:52.858Z,2.52
2018-09-23T02:19:20.048Z,2.95
2018-09-23T02:21:47.278Z,2.30
2018-09-23T02:24:14.536Z,2.40
2018-09-23T02:26:41.777Z,2.80
2018-09-23T02:29:08.984Z,2.85
2018-09-23T02:31:36.185Z,2.90
2018-09-23T02:34:03.397Z,3.02
2018-09-23T02:36:30.581Z,3.02
2018-09-23T02:38:57.833Z,2.20
2018-09-23T02:41:25.036Z,2.47
2018-09-23T02:43:52.229Z,2.62
2018-09-23T02:46:19.427Z,2.60
2018-09-23T02:48:46.606Z,2.58
2018-09-23T02:51:13.794Z,2.00
2018-09-23T02:53:41.039Z,2.10
2018-09-23T02:56:08.215Z,2.47
2018-09-23T02:58:35.474Z,3.08
2018-09-23T03:01:02.672Z,2.27
2018-09-23T03:03:29.853Z,2.58
2018-09-23T03:05:57.098Z,3.25
2018-09-23T03:08:24.286Z,2.98
2018-09-23T03:10:51.475Z,2.98
2018-09-23T03:13:18.685Z,2.47
2018-09-23T03:15:45.900Z,2.67
2018-09-23T03:18:13.129Z,2.35
2018-09-23T03:20:40.315Z,3.05
2018-09-23T03:23:07.507Z,3.10
2018-09-23T03:25:34.722Z,2.55
2018-09-23T03:28:01.919Z,3.05
2018-09-23T03:30:29.107Z,2.27
2018-09-23T03:32:56.324Z,2.62
2018-09-23T03:35:23.504Z,3.05
2018-09-23T03:37:51.514Z,2.35
2018-09-23T03:40:18.716Z,2.52
2018-09-23T03:42:45.940Z,2.50
2018-09-23T03:45:13.106Z,2.75
2018-09-23T03:47:40.303Z,2.40
2018-09-23T03:50:07.487Z,2.58
2018-09-23T03:52:34.667Z,3.20
2018-09-23T03:55:01.854Z,2.90
2018-09-23T03:57:29.114Z,2.55
2018-09-23T03:59:56.302Z,2.30
2018-09-23T04:02:23.482Z,3.00
2018-09-23T04:04:50.672Z,2.77
2018-09-23T04:07:17.866Z,2.55
2018-09-23T04:09:45.042Z,2.90
2018-09-23T04:12:12.600Z,3.02
2018-09-23T04:14:39.633Z,2.80
2018-09-23T04:17:07.364Z,2.95
2018-09-23T04:19:34.659Z,2.75
2018-09-23T04:22:01.832Z,2.75
2018-09-23T04:24:29.016Z,2.50
2018-09-23T04:26:56.215Z,2.50
2018-09-23T04:29:23.418Z,3.05
2018-09-23T04:31:50.610Z,3.02
2018-09-23T04:34:17.778Z,2.50
2018-09-23T04:36:44.974Z,2.90
2018-09-23T04:39:12.523Z,2.80
2018-09-23T04:41:39.715Z,2.00
2018-09-23T04:44:06.886Z,3.17
2018-09-23T04:46:34.074Z,3.20
2018-09-23T04:49:01.262Z,3.22
2018-09-23T04:51:28.495Z,2.60
2018-09-23T04:53:55.696Z,3.55
2018-09-23T04:56:22.870Z,3.25
2018-09-23T04:58:50.044Z,2.80
2018-09-23T05:01:17.235Z,3.42
2018-09-23T05:03:44.403Z,2.58
2018-09-23T05:06:11.595Z,2.85
2018-09-23T05:08:38.758Z,2.90
2018-09-23T05:11:05.957Z,4.03
2018-09-23T05:13:33.160Z,3.47
2018-09-23T05:16:00.329Z,3.08
2018-09-23T05:18:27.523Z,2.62
2018-09-23T05:20:54.773Z,3.50
2018-09-23T05:23:21.958Z,2.60
2018-09-23T05:25:49.179Z,3.15
2018-09-23T05:28:16.342Z,3.22
2018-09-23T05:30:43.522Z,3.12
2018-09-23T05:33:10.720Z,4.15
2018-09-23T05:35:37.945Z,2.62
2018-09-23T05:38:05.151Z,3.40
2018-09-23T05:40:32.347Z,3.52
2018-09-23T05:42:59.544Z,3.17
2018-09-23T05:45:26.711Z,4.03
2018-09-23T05:47:53.883Z,3.90
2018-09-23T05:50:21.151Z,3.70
2018-09-23T05:52:48.328Z,3.25
2018-09-23T05:55:15.534Z,4.17
2018-09-23T05:57:42.702Z,3.20
2018-09-23T06:00:11.362Z,3.45
2018-09-23T06:02:38.543Z,3.15
2018-09-23T06:05:05.731Z,3.85
2018-09-23T06:07:32.903Z,4.10
2018-09-23T06:10:00.102Z,4.42
2018-09-23T06:12:27.293Z,3.70
2018-09-23T06:14:54.467Z,3.50
2018-09-23T06:17:21.662Z,4.20
2018-09-23T06:19:48.848Z,3.37
2018-09-23T06:22:16.009Z,3.40
2018-09-23T06:24:43.213Z,3.55
2018-09-23T06:27:10.391Z,3.50
2018-09-23T06:29:37.667Z,3.98
2018-09-23T06:32:05.054Z,3.33
2018-09-23T06:34:32.230Z,3.65
2018-09-23T06:36:59.498Z,3.85
2018-09-23T06:39:26.664Z,3.35
2018-09-23T06:41:53.960Z,3.95
2018-09-23T06:44:21.212Z,2.83
2018-09-23T06:46:48.412Z,2.90
2018-09-23T06:49:15.614Z,4.42
2018-09-23T06:51:42.800Z,5.15
2018-09-23T06:54:09.995Z,3.60
2018-09-23T06:56:37.184Z,3.92
2018-09-23T06:59:04.367Z,4.58
2018-09-23T07:01:31.560Z,3.35
2018-09-23T07:03:58.973Z,3.60
2018-09-23T07:06:26.162Z,10.32
2018-09-23T07:08:53.344Z,4.62
2018-09-23T07:11:20.530Z,2.33
2018-09-23T07:13:47.724Z,3.30
2018-09-23T07:16:14.979Z,3.52
2018-09-23T07:18:42.212Z,3.27
2018-09-23T07:21:09.423Z,3.20
2018-09-23T07:23:36.608Z,2.70
2018-09-23T07:26:03.792Z,2.40
2018-09-23T07:28:30.988Z,2.40
2018-09-23T07:30:58.178Z,2.52
2018-09-23T07:33:25.380Z,2.10
2018-09-23T07:35:52.575Z,4.08
2018-09-23T07:38:19.755Z,3.10
2018-09-23T07:40:46.946Z,3.55
2018-09-23T07:43:14.124Z,3.83
2018-09-23T07:45:41.327Z,6.22
2018-09-23T07:48:08.609Z,5.67
2018-09-23T07:50:35.728Z,3.25
2018-09-23T07:53:02.907Z,4.37
2018-09-23T07:55:30.094Z,2.33
2018-09-23T07:57:57.352Z,2.20
2018-09-23T08:00:24.529Z,3.17
2018-09-23T08:02:51.741Z,1.72
2018-09-23T08:05:18.916Z,2.67
2018-09-23T08:07:46.078Z,5.45
2018-09-23T08:10:13.290Z,5.92
2018-09-23T08:12:40.644Z,2.30
2018-09-23T08:15:07.901Z,2.15
2018-09-23T08:17:35.315Z,2.33
2018-09-23T08:20:02.649Z,1.80
2018-09-23T08:22:29.820Z,2.85
2018-09-23T08:24:57.053Z,2.20
2018-09-23T08:27:24.243Z,1.90
2018-09-23T08:29:51.415Z,1.40
2018-09-23T08:32:18.574Z,1.57
2018-09-23T08:34:45.775Z,1.62
2018-09-23T08:37:12.985Z,1.40
2018-09-23T08:39:40.224Z,2.50
2018-09-23T08:42:07.390Z,1.47
2018-09-23T08:44:34.565Z,1.37
2018-09-23T08:47:01.754Z,1.82
2018-09-23T08:49:29.028Z,2.17
2018-09-23T08:51:56.292Z,1.90
2018-09-23T08:54:23.419Z,3.62
2018-09-23T08:56:50.682Z,3.72
2018-09-23T08:59:17.864Z,3.72
2018-09-23T09:01:45.051Z,2.20
2018-09-23T09:04:12.246Z,1.37
2018-09-23T09:06:39.424Z,1.70
2018-09-23T09:09:06.672Z,2.20
2018-09-23T09:11:34.170Z,2.00
2018-09-23T09:14:01.348Z,2.77
2018-09-23T09:16:28.532Z,4.70
2018-09-23T09:18:55.708Z,1.65
2018-09-23T09:21:22.899Z,1.65
2018-09-23T09:23:50.082Z,1.20
2018-09-23T09:26:17.255Z,1.52
2018-09-23T09:28:44.443Z,1.75
2018-09-23T09:31:11.611Z,1.52
2018-09-23T09:33:38.775Z,1.50
2018-09-23T09:36:06.147Z,1.80
2018-09-23T09:38:33.413Z,2.50
2018-09-23T09:41:00.531Z,1.45
2018-09-23T09:43:27.702Z,2.30
2018-09-23T09:45:54.888Z,1.90
2018-09-23T09:48:22.072Z,4.87
2018-09-23T09:50:49.269Z,1.80
2018-09-23T09:53:16.454Z,2.98
2018-09-23T09:55:43.639Z,1.95
2018-09-23T09:58:10.847Z,2.20
2018-09-23T10:00:38.037Z,2.60
2018-09-23T10:03:06.597Z,2.62
2018-09-23T10:05:33.798Z,2.35
2018-09-23T10:08:00.986Z,2.05
2018-09-23T10:10:28.183Z,2.22
2018-09-23T10:12:55.358Z,2.35
2018-09-23T10:15:22.653Z,2.90
2018-09-23T10:17:49.863Z,2.33
2018-09-23T10:20:17.054Z,2.90
2018-09-23T10:22:44.478Z,3.02
2018-09-23T10:25:11.683Z,3.00
2018-09-23T10:27:38.855Z,2.45
2018-09-23T10:30:06.524Z,2.45
2018-09-23T10:32:33.711Z,2.33
2018-09-23T10:35:00.879Z,4.03
2018-09-23T10:37:28.073Z,3.05
2018-09-23T10:39:55.277Z,2.40
2018-09-23T10:42:22.454Z,5.58
2018-09-23T10:44:49.635Z,3.12
2018-09-23T10:47:16.807Z,3.27
2018-09-23T10:49:43.974Z,2.37
2018-09-23T10:52:11.159Z,3.25
2018-09-23T10:54:38.329Z,2.80
2018-09-23T10:57:05.527Z,3.17
2018-09-23T10:59:32.786Z,2.40
2018-09-23T11:01:59.922Z,2.70
2018-09-23T11:04:27.098Z,3.98
2018-09-23T11:06:54.271Z,3.50
2018-09-23T11:09:21.484Z,3.90
2018-09-23T11:11:48.671Z,3.30
2018-09-23T11:14:16.027Z,3.22
2018-09-23T11:16:43.200Z,3.00
2018-09-23T11:19:10.406Z,3.60
2018-09-23T11:21:37.604Z,3.75
2018-09-23T11:24:05.047Z,3.70
2018-09-23T11:26:32.229Z,3.83
2018-09-23T11:28:59.411Z,3.00
2018-09-23T11:31:26.588Z,3.58
2018-09-23T11:33:53.802Z,3.65
2018-09-23T11:36:21.055Z,3.50
2018-09-23T11:38:48.250Z,4.30
2018-09-23T11:41:15.463Z,3.52
2018-09-23T11:43:42.698Z,3.20
2018-09-23T11:46:09.902Z,3.60
2018-09-23T11:48:37.111Z,3.12
2018-09-23T11:51:04.270Z,2.77
2018-09-23T11:53:31.442Z,3.75
2018-09-23T11:55:58.610Z,3.12
2018-09-23T11:58:25.779Z,3.70
2018-09-23T12:00:52.937Z,2.92
2018-09-23T12:03:20.316Z,2.75
2018-09-23T12:05:47.477Z,3.75
2018-09-23T12:08:14.664Z,3.10
2018-09-23T12:10:41.906Z,2.70
2018-09-23T12:13:09.071Z,2.92
2018-09-23T12:15:36.267Z,2.70
2018-09-23T12:18:03.443Z,3.25
2018-09-23T12:20:30.623Z,2.20
2018-09-23T12:22:57.811Z,1.82
2018-09-23T12:25:25.149Z,1.60
2018-09-23T12:27:52.310Z,1.55
2018-09-23T12:30:19.579Z,1.10
2018-09-23T12:32:46.779Z,1.00
2018-09-23T12:35:13.957Z,1.00
2018-09-23T12:37:41.132Z,1.05
2018-09-23T12:40:08.314Z,1.30
2018-09-23T12:42:35.531Z,1.10
2018-09-23T12:45:02.704Z,1.70
2018-09-23T12:47:29.870Z,1.32
2018-09-23T12:49:57.079Z,1.30
2018-09-23T12:52:24.238Z,1.12
2018-09-23T12:54:51.391Z,1.25
2018-09-23T12:57:18.567Z,0.98
2018-09-23T12:59:45.771Z,1.15
2018-09-23T13:02:13.039Z,1.30
2018-09-23T13:04:40.225Z,0.82
2018-09-23T13:07:07.407Z,1.30
2018-09-23T13:09:34.740Z,1.05
2018-09-23T13:12:01.996Z,0.93
2018-09-23T13:14:29.169Z,1.20
2018-09-23T13:16:56.345Z,1.10
2018-09-23T13:19:23.611Z,1.07
2018-09-23T13:21:50.733Z,0.70
2018-09-23T13:24:17.929Z,0.60
2018-09-23T13:26:45.091Z,0.95
2018-09-23T13:29:12.261Z,1.07
2018-09-23T13:31:39.433Z,1.35
2018-09-23T13:34:06.626Z,1.42
2018-09-23T13:36:33.804Z,1.25
2018-09-23T13:39:01.154Z,1.02
2018-09-23T13:41:28.318Z,1.20
2018-09-23T13:43:55.487Z,1.20
2018-09-23T13:46:22.682Z,0.90
2018-09-23T13:48:49.857Z,1.10
2018-09-23T13:51:17.022Z,0.80
2018-09-23T13:53:44.190Z,1.00
2018-09-23T13:56:11.424Z,0.95
2018-09-23T13:58:38.605Z,1.17
2018-09-23T14:01:05.775Z,0.93
2018-09-23T14:03:33.176Z,1.32
2018-09-23T14:06:00.345Z,1.05
2018-09-23T14:08:27.541Z,0.47
2018-09-23T14:10:54.702Z,0.50
2018-09-23T14:13:21.891Z,0.80
2018-09-23T14:15:49.104Z,0.30
2018-09-23T14:18:16.270Z,0.40
2018-09-23T14:20:43.434Z,0.37
2018-09-23T14:23:10.614Z,0.50
2018-09-23T14:25:37.808Z,0.20
2018-09-23T14:28:05.016Z,0.20
2018-09-23T14:30:32.240Z,0.30
2018-09-23T14:32:59.430Z,0.30
2018-09-23T14:35:26.620Z,0.40
2018-09-23T14:37:53.810Z,0.40
2018-09-23T14:40:21.228Z,0.40
2018-09-23T14:42:48.402Z,0.50
2018-09-23T14:45:15.600Z,0.35
2018-09-23T14:47:42.819Z,0.33
2018-09-23T14:50:10.007Z,0.33
2018-09-23T14:52:37.203Z,0.30
2018-09-23T14:55:04.463Z,0.35
2018-09-23T14:57:31.632Z,0.30
2018-09-23T15:00:03.066Z,0.30
2018-09-23T15:02:26.043Z,0.60
2018-09-23T15:04:53.296Z,0.50
2018-09-23T15:07:20.569Z,0.40
2018-09-23T15:09:47.953Z,0.40
2018-09-23T15:12:15.134Z,0.23
2018-09-23T15:14:42.408Z,0.30
2018-09-23T15:17:09.590Z,0.35
2018-09-23T15:19:36.783Z,0.30
2018-09-23T15:22:03.976Z,0.80
2018-09-23T15:24:31.169Z,0.37
2018-09-23T15:26:58.464Z,0.30
2018-09-23T15:29:25.718Z,0.40
2018-09-23T15:31:52.908Z,0.30
2018-09-23T15:34:20.092Z,0.35
2018-09-23T15:36:47.280Z,0.30
2018-09-23T15:39:14.459Z,0.40
2018-09-23T15:41:41.669Z,0.40
2018-09-23T15:44:08.860Z,0.30
2018-09-23T15:46:36.051Z,0.60
2018-09-23T15:49:03.265Z,0.60
2018-09-23T15:51:30.440Z,0.50
2018-09-23T15:53:57.622Z,0.30
2018-09-23T15:56:24.813Z,1.00
2018-09-23T15:58:51.997Z,0.40
2018-09-23T16:01:19.166Z,0.60
2018-09-23T16:03:46.347Z,1.00
2018-09-23T16:06:13.573Z,1.35
2018-09-23T16:08:40.829Z,2.85
2018-09-23T16:11:08.084Z,1.50
2018-09-23T16:13:35.284Z,1.30
2018-09-23T16:16:02.466Z,1.02
2018-09-23T16:18:29.704Z,1.20
2018-09-23T16:20:56.867Z,1.32
2018-09-23T16:23:24.050Z,0.93
2018-09-23T16:25:51.256Z,1.60
2018-09-23T16:28:18.459Z,1.55
2018-09-23T16:30:45.652Z,1.40
2018-09-23T16:33:12.839Z,1.20
2018-09-23T16:35:40.036Z,1.70
2018-09-23T16:38:07.222Z,0.80
2018-09-23T16:40:34.494Z,1.00
2018-09-23T16:43:01.679Z,1.02
2018-09-23T16:45:28.856Z,1.30
2018-09-23T16:47:56.061Z,1.30
2018-09-23T16:50:23.251Z,1.75
2018-09-23T16:52:50.463Z,1.60
2018-09-23T16:55:17.629Z,1.12
2018-09-23T16:57:44.863Z,1.35
2018-09-23T17:00:12.103Z,1.35
2018-09-23T17:02:39.287Z,1.42
2018-09-23T17:05:06.480Z,1.02
2018-09-23T17:07:33.715Z,1.60
2018-09-23T17:10:00.891Z,1.20
2018-09-23T17:12:28.096Z,1.20
2018-09-23T17:14:55.299Z,1.22
2018-09-23T17:17:22.484Z,1.37
2018-09-23T17:19:49.686Z,1.30
2018-09-23T17:22:16.936Z,1.32
2018-09-23T17:24:44.129Z,1.40
2018-09-23T17:27:11.362Z,1.50
2018-09-23T17:29:38.567Z,1.20
2018-09-23T17:32:05.762Z,1.20
2018-09-23T17:34:32.938Z,1.10
2018-09-23T17:37:00.274Z,2.50
2018-09-23T17:39:27.461Z,1.10
2018-09-23T17:41:54.775Z,1.00
2018-09-23T17:44:21.995Z,1.20
2018-09-23T17:46:49.179Z,1.27
2018-09-23T17:49:16.359Z,1.42
2018-09-23T17:51:43.521Z,1.00
2018-09-23T17:54:10.713Z,1.10
2018-09-23T17:56:37.982Z,1.17
2018-09-23T17:59:05.283Z,1.05
2018-09-23T18:01:32.525Z,1.15
2018-09-23T18:03:59.738Z,1.10
2018-09-23T18:06:26.939Z,0.90
2018-09-23T18:08:54.282Z,0.80
2018-09-23T18:11:21.486Z,1.00
2018-09-23T18:13:48.672Z,0.90
2018-09-23T18:16:15.902Z,0.95
2018-09-23T18:18:43.096Z,0.80
2018-09-23T18:21:10.309Z,0.90
2018-09-23T18:23:37.777Z,1.07
2018-09-23T18:26:04.946Z,1.75
2018-09-23T18:28:32.150Z,0.90
2018-09-23T18:30:59.374Z,0.90
2018-09-23T18:33:26.560Z,1.02
2018-09-23T18:35:53.847Z,0.93
2018-09-23T18:38:21.035Z,1.02
2018-09-23T18:40:48.207Z,1.20
2018-09-23T18:43:15.398Z,1.17
2018-09-23T18:45:42.608Z,1.10
2018-09-23T18:48:09.813Z,1.10
2018-09-23T18:50:37.019Z,1.15
2018-09-23T18:53:36.799Z,1.10
2018-09-23T18:56:03.976Z,1.30
2018-09-23T18:58:31.155Z,1.10
2018-09-23T19:00:58.342Z,1.35
2018-09-23T19:03:25.604Z,1.25
2018-09-23T19:05:52.714Z,1.20
2018-09-23T19:08:19.903Z,1.17
2018-09-23T19:10:47.079Z,1.30
2018-09-23T19:13:19.870Z,1.45
2018-09-23T19:15:51.369Z,1.30
2018-09-23T19:18:18.567Z,1.22
2018-09-23T19:20:45.816Z,1.40
2018-09-23T19:23:13.530Z,1.45
2018-09-23T19:25:40.779Z,1.37
2018-09-23T19:28:08.015Z,1.22
2018-09-23T19:30:35.216Z,1.50
2018-09-23T19:33:02.497Z,1.40
2018-09-23T19:35:29.912Z,1.57
2018-09-23T19:37:57.578Z,1.45
2018-09-23T19:40:24.777Z,1.40
2018-09-23T19:42:52.067Z,1.30
2018-09-23T19:45:19.220Z,1.60
2018-09-23T19:47:46.406Z,1.40
2018-09-23T19:50:13.591Z,1.65
2018-09-23T19:52:40.783Z,1.60
2018-09-23T19:55:07.979Z,1.70
2018-09-23T19:57:35.147Z,1.75
2018-09-23T20:00:02.318Z,1.70
2018-09-23T20:02:29.796Z,1.80
2018-09-23T20:04:56.984Z,1.70
2018-09-23T20:07:24.483Z,1.77
2018-09-23T20:09:51.673Z,1.80
2018-09-23T20:12:18.846Z,1.90
2018-09-23T20:14:46.055Z,1.80
2018-09-23T20:17:13.283Z,1.90
2018-09-23T20:19:40.676Z,2.00
2018-09-23T20:22:08.437Z,2.60
2018-09-23T20:24:35.736Z,2.60
2018-09-23T20:27:03.016Z,2.60
2018-09-23T20:29:30.206Z,2.58
2018-09-23T20:31:57.413Z,2.20
2018-09-23T20:34:24.582Z,2.50
2018-09-23T20:36:51.806Z,2.42
2018-09-23T20:39:18.987Z,2.55
2018-09-23T20:41:46.167Z,2.60
2018-09-23T20:44:13.430Z,2.52
2018-09-23T20:46:40.635Z,2.37
2018-09-23T20:49:07.826Z,2.45
2018-09-23T20:51:34.987Z,2.40
2018-09-23T20:54:02.178Z,2.47
2018-09-23T20:56:29.356Z,2.40
2018-09-23T20:58:56.515Z,2.20
2018-09-23T21:01:23.706Z,2.30
2018-09-23T21:03:50.875Z,2.52
2018-09-23T21:06:18.068Z,2.33
2018-09-23T21:08:45.247Z,2.75
2018-09-23T21:11:12.420Z,2.85
2018-09-23T21:13:39.602Z,2.37
2018-09-23T21:16:06.763Z,2.12
2018-09-23T21:18:33.952Z,2.40
2018-09-23T21:21:01.136Z,2.60
2018-09-23T21:23:28.311Z,2.40
2018-09-23T21:25:55.483Z,2.58
2018-09-23T21:28:22.672Z,2.55
2018-09-23T21:30:49.834Z,2.55
2018-09-23T21:33:17.014Z,2.90
2018-09-23T21:35:44.256Z,2.77
2018-09-23T21:38:11.603Z,2.60
2018-09-23T21:40:38.782Z,3.25
2018-09-23T21:43:06.003Z,2.35
2018-09-23T21:45:33.178Z,2.72
2018-09-23T21:48:00.360Z,2.50
2018-09-23T21:50:27.543Z,2.83
2018-09-23T21:52:54.737Z,2.90
2018-09-23T21:55:21.907Z,2.85
2018-09-23T21:57:49.099Z,2.33
2018-09-23T22:00:16.298Z,2.25
2018-09-23T22:02:43.483Z,2.92
2018-09-23T22:05:10.692Z,2.65
2018-09-23T22:07:37.868Z,3.05
2018-09-23T22:10:05.064Z,3.20
2018-09-23T22:12:32.256Z,3.45
2018-09-23T22:14:59.432Z,3.15
2018-09-23T22:17:26.608Z,3.25
2018-09-23T22:19:53.778Z,3.30
2018-09-23T22:22:20.957Z,3.00
2018-09-23T22:24:48.130Z,3.70
2018-09-23T22:27:15.302Z,2.72
2018-09-23T22:29:42.491Z,2.90
2018-09-23T22:32:09.663Z,3.10
2018-09-23T22:34:36.850Z,2.80
2018-09-23T22:37:04.044Z,3.20
2018-09-23T22:39:31.236Z,3.15
2018-09-23T22:41:58.411Z,3.20
2018-09-23T22:44:25.601Z,2.80
2018-09-23T22:46:52.763Z,3.37
2018-09-23T22:49:19.946Z,3.70
2018-09-23T22:51:47.106Z,3.50
2018-09-23T22:54:14.291Z,3.87
2018-09-23T22:56:41.456Z,3.77
2018-09-23T22:59:08.619Z,3.75
2018-09-23T23:01:35.802Z,3.22
2018-09-23T23:04:02.967Z,3.50
2018-09-23T23:06:30.166Z,3.30
2018-09-23T23:08:57.368Z,2.95
2018-09-23T23:11:24.575Z,3.25
2018-09-23T23:13:51.738Z,3.80
2018-09-23T23:16:18.912Z,3.67
2018-09-23T23:18:46.070Z,3.90
2018-09-23T23:21:13.269Z,3.35
2018-09-23T23:23:40.456Z,3.35
2018-09-23T23:26:07.625Z,3.55
2018-09-23T23:28:34.799Z,3.40
2018-09-23T23:31:02.024Z,3.83
2018-09-23T23:33:29.177Z,3.58
2018-09-23T23:35:56.378Z,3.80
2018-09-23T23:38:23.556Z,3.62
2018-09-23T23:40:50.726Z,3.92
2018-09-23T23:43:17.937Z,3.67
2018-09-23T23:45:45.167Z,3.80
2018-09-23T23:48:12.338Z,3.87
2018-09-23T23:50:39.547Z,4.10
2018-09-23T23:53:06.720Z,4.17
2018-09-23T23:55:33.898Z,3.98
2018-09-23T23:58:01.095Z,3.90
